Bookmark and Share
Track history (hours):
 

Aikoumaru No.8

Last reported at 2014-Apr-23 19:11 UTC. Time now 2014-Apr-24 02:04 UTC.
Position N 35°50' E 140°56'.

Length 74 m; draft 4.5 m.

Type: Cargo ship. MMSI: 431003153.

NotesDate/timePositionNaut miles runAvg speedWind from/ knotsBaromVisibWave heightAir tempDewpointWater temp
2014-Apr-23 19:11N 35°50' E 140°56'711.0
2014-Apr-23 18:33N 35°43' E 140°55'1111.0
2014-Apr-23 17:33N 35°34' E 140°48'1211.6
2014-Apr-23 16:33N 35°24' E 140°40'1211.6
2014-Apr-23 15:34N 35°15' E 140°32'1711.4
2014-Apr-23 14:06N 35°03' E 140°17'711.9
2014-Apr-23 13:33N 34°60' E 140°10'1212.0
2014-Apr-23 12:33N 34°53' E 139°58'  
2014-Apr-18 16:10N 35°58' E 140°43'3 0.2
2014-Apr-17 23:33N 35°56' E 140°40'0 0.0
2014-Apr-17 22:27N 35°56' E 140°40'0 0.0
2014-Apr-17 21:33N 35°56' E 140°40'0 0.0
2014-Apr-17 20:33N 35°56' E 140°40'0 0.0
2014-Apr-17 19:27N 35°56' E 140°40'0 0.0
2014-Apr-17 18:25N 35°56' E 140°40'0 0.0
2014-Apr-17 17:30N 35°56' E 140°40'0 0.0
2014-Apr-17 16:27N 35°56' E 140°40'0 0.0
2014-Apr-17 15:34N 35°56' E 140°40'0 0.0
2014-Apr-17 14:33N 35°56' E 140°40'0 0.0
2014-Apr-17 13:18N 35°56' E 140°40'0 0.0
2014-Apr-17 12:33N 35°56' E 140°40'0 0.0
2014-Apr-17 11:27N 35°56' E 140°40'0 0.0
2014-Apr-17 10:27N 35°56' E 140°40'0 0.0
2014-Apr-17 09:33N 35°56' E 140°40'0 0.0
2014-Apr-17 08:33N 35°56' E 140°40'0 0.0
2014-Apr-17 07:33N 35°56' E 140°40'0 0.0
2014-Apr-17 06:27N 35°56' E 140°40'0 0.0
2014-Apr-17 05:33N 35°56' E 140°40'2 2.1
2014-Apr-17 04:24N 35°57' E 140°42'0 0.0
2014-Apr-17 02:26N 35°57' E 140°42'0 0.0
2014-Apr-17 01:23N 35°57' E 140°42'0 0.0
2014-Apr-16 23:26N 35°57' E 140°42'7 7.3
2014-Apr-16 22:30N 35°52' E 140°49'1112.0
2014-Apr-16 21:33N 35°42' E 140°55'1211.8
2014-Apr-16 20:31N 35°32' E 140°47'1111.8
2014-Apr-16 19:34N 35°23' E 140°38'1211.9
2014-Apr-16 18:33N 35°14' E 140°30'1413.3
2014-Apr-16 17:31N 35°04' E 140°17'1212.9
2014-Apr-16 16:33N 34°58' E 140°05'1412.1
2014-Apr-16 15:23N 34°52' E 139°49'911.3
2014-Apr-16 14:33N 35°01' E 139°43'1312.7
2014-Apr-16 13:33N 35°13' E 139°46'1211.8
2014-Apr-16 12:33N 35°25' E 139°44'1313.0
2014-Apr-16 11:33N 35°34' E 139°56'8 7.8
2014-Apr-16 10:33N 35°41' E 139°57'0 0.0
2014-Apr-16 09:22N 35°41' E 139°57'0 0.0
2014-Apr-16 08:25N 35°41' E 139°57'0 0.0
2014-Apr-16 07:33N 35°41' E 139°57'4 4.0
2014-Apr-16 06:32N 35°37' E 139°58'0 0.0
2014-Apr-16 05:32N 35°37' E 139°58'0 0.0
2014-Apr-16 04:32N 35°37' E 139°58'0 0.0
2014-Apr-16 03:32N 35°37' E 139°58'0 0.0
2014-Apr-16 02:32N 35°37' E 139°58'6 5.8
2014-Apr-16 01:33N 35°33' E 139°55'1111.1
2014-Apr-16 00:33N 35°25' E 139°45'6 5.3
2014-Apr-15 23:30N 35°23' E 139°38'0 0.1
2014-Apr-15 22:33N 35°23' E 139°38'1 1.0
2014-Apr-15 21:30N 35°24' E 139°39'0 0.0
2014-Apr-15 20:27N 35°24' E 139°39'0 0.0
2014-Apr-15 19:33N 35°24' E 139°39'0 0.0
2014-Apr-15 18:33N 35°24' E 139°39'0 0.0
2014-Apr-15 17:33N 35°24' E 139°39'0 0.1
2014-Apr-15 16:33N 35°24' E 139°39'7 7.4
2014-Apr-15 15:33N 35°18' E 139°45'1110.9
2014-Apr-15 14:33N 35°07' E 139°45'12 5.9
2014-Apr-15 12:32N 34°59' E 139°34'  

Dump ship's entire track history

sailing weather and tide predictions

Aikoumaru No.8 — JD3288 — position and weather